createdAt,value
2023-08-04T00:00:56.782Z,25.08
2023-08-04T00:03:25.606Z,25.03
2023-08-04T00:05:54.320Z,24.91
2023-08-04T00:08:23.147Z,24.77
2023-08-04T00:10:54.969Z,24.74
2023-08-04T00:13:23.651Z,24.86
2023-08-04T00:15:52.550Z,24.86
2023-08-04T00:18:21.206Z,24.86
2023-08-04T00:20:50.217Z,24.81
2023-08-04T00:23:18.994Z,24.77
2023-08-04T00:25:47.653Z,24.86
2023-08-04T00:28:16.394Z,24.85
2023-08-04T00:30:45.294Z,24.78
2023-08-04T00:33:14.180Z,24.71
2023-08-04T00:35:43.533Z,24.62
2023-08-04T00:38:12.462Z,24.61
2023-08-04T00:40:41.429Z,24.62
2023-08-04T00:43:13.480Z,24.57
2023-08-04T00:45:42.533Z,24.57
2023-08-04T00:48:13.027Z,24.51
2023-08-04T00:50:43.008Z,24.53
2023-08-04T00:53:14.796Z,24.50
2023-08-04T00:55:43.628Z,24.51
2023-08-04T00:58:12.548Z,24.43
2023-08-04T01:00:45.630Z,24.43
2023-08-04T01:03:14.549Z,24.46
2023-08-04T01:06:04.322Z,24.45
2023-08-04T01:08:37.181Z,24.47
2023-08-04T01:11:11.760Z,24.46
2023-08-04T01:13:43.620Z,24.39
2023-08-04T01:16:12.497Z,24.44
2023-08-04T01:18:41.471Z,24.42
2023-08-04T01:21:10.360Z,24.34
2023-08-04T01:23:39.207Z,24.38
2023-08-04T01:26:09.628Z,24.37
2023-08-04T01:28:39.588Z,24.21
2023-08-04T01:31:10.090Z,24.06
2023-08-04T01:33:39.376Z,23.91
2023-08-04T01:36:08.346Z,23.76
2023-08-04T01:38:37.249Z,23.71
2023-08-04T01:41:07.214Z,23.77
2023-08-04T01:43:36.218Z,23.84
2023-08-04T01:46:06.672Z,23.90
2023-08-04T01:48:35.488Z,23.83
2023-08-04T01:51:10.918Z,23.90
2023-08-04T01:53:48.796Z,23.93
2023-08-04T01:56:30.818Z,23.90
2023-08-04T01:59:07.597Z,23.92
2023-08-04T02:01:36.523Z,23.95
2023-08-04T02:04:05.395Z,23.94
2023-08-04T02:06:34.261Z,23.96
2023-08-04T02:09:04.612Z,23.88
2023-08-04T02:11:33.437Z,23.89
2023-08-04T02:14:02.518Z,23.93
2023-08-04T02:16:31.257Z,23.88
2023-08-04T02:19:05.537Z,23.90
2023-08-04T02:21:34.289Z,23.84
2023-08-04T02:24:03.681Z,23.83
2023-08-04T02:26:33.595Z,23.91
2023-08-04T02:29:02.528Z,23.69
2023-08-04T02:31:33.361Z,23.77
2023-08-04T02:34:02.082Z,23.72
2023-08-04T02:36:31.160Z,23.67
2023-08-04T02:39:02.235Z,23.72
2023-08-04T02:41:34.724Z,23.66
2023-08-04T02:44:14.131Z,23.64
2023-08-04T02:46:53.205Z,23.52
2023-08-04T02:49:17.749Z,23.49
2023-08-04T02:51:46.710Z,23.47
2023-08-04T02:54:18.950Z,23.51
2023-08-04T02:56:52.256Z,23.50
2023-08-04T03:02:10.507Z,23.45
2023-08-04T03:04:43.382Z,23.41
2023-08-04T03:07:16.763Z,23.49
2023-08-04T03:09:45.589Z,23.46
2023-08-04T03:12:14.391Z,23.41
2023-08-04T03:14:43.259Z,23.41
2023-08-04T03:17:14.832Z,23.37
2023-08-04T03:19:53.241Z,23.41
2023-08-04T03:22:23.537Z,23.46
2023-08-04T03:24:52.510Z,23.34
2023-08-04T03:27:21.235Z,23.36
2023-08-04T03:29:50.025Z,23.32
2023-08-04T03:32:20.573Z,23.31
2023-08-04T03:34:49.241Z,23.42
2023-08-04T03:37:17.887Z,23.37
2023-08-04T03:39:46.634Z,23.32
2023-08-04T03:42:19.370Z,23.47
2023-08-04T03:44:48.034Z,23.38
2023-08-04T03:47:16.848Z,23.57
2023-08-04T03:49:45.652Z,23.57
2023-08-04T03:52:14.359Z,23.68
2023-08-04T03:54:45.525Z,24.19
2023-08-04T03:57:20.975Z,24.75
2023-08-04T03:59:52.197Z,25.46
2023-08-04T04:02:21.400Z,25.93
2023-08-04T04:04:52.810Z,26.32
2023-08-04T04:07:20.762Z,26.72
2023-08-04T04:09:49.607Z,27.13
2023-08-04T04:12:18.466Z,27.46
2023-08-04T04:14:47.339Z,27.74
2023-08-04T04:17:16.080Z,28.12
2023-08-04T04:19:44.822Z,28.37
2023-08-04T04:22:13.610Z,28.59
2023-08-04T04:24:44.415Z,28.88
2023-08-04T04:27:13.700Z,29.06
2023-08-04T04:29:42.582Z,28.97
2023-08-04T04:32:11.325Z,29.23
2023-08-04T04:34:42.696Z,28.68
2023-08-04T04:37:16.413Z,27.61
2023-08-04T04:39:45.491Z,26.67
2023-08-04T04:42:20.698Z,26.16
2023-08-04T04:44:49.616Z,25.96
2023-08-04T04:47:21.307Z,25.93
2023-08-04T04:49:50.395Z,25.81
2023-08-04T04:52:34.306Z,25.66
2023-08-04T04:55:03.434Z,25.64
2023-08-04T04:57:35.333Z,25.73
2023-08-04T05:00:14.857Z,25.77
2023-08-04T05:02:59.572Z,25.81
2023-08-04T05:05:19.107Z,25.89
2023-08-04T05:10:58.639Z,25.60
2023-08-04T05:13:29.436Z,25.61
2023-08-04T05:26:27.254Z,25.96
2023-08-04T05:28:56.190Z,26.02
2023-08-04T05:31:28.101Z,26.03
2023-08-04T05:33:58.753Z,26.08
2023-08-04T05:36:29.794Z,26.23
2023-08-04T05:38:58.874Z,26.25
2023-08-04T05:41:27.937Z,26.41
2023-08-04T05:43:56.917Z,26.35
2023-08-04T05:46:25.745Z,26.41
2023-08-04T05:48:54.561Z,26.56
2023-08-04T05:51:25.240Z,26.43
2023-08-04T05:53:54.265Z,26.34
2023-08-04T05:56:23.268Z,26.63
2023-08-04T05:58:52.210Z,26.79
2023-08-04T06:01:21.011Z,26.99
2023-08-04T06:03:49.790Z,27.14
2023-08-04T06:06:18.550Z,27.33
2023-08-04T06:08:47.405Z,26.98
2023-08-04T06:11:26.147Z,27.19
2023-08-04T06:14:06.748Z,27.46
2023-08-04T06:16:38.426Z,27.29
2023-08-04T06:19:07.360Z,27.48
2023-08-04T06:21:45.456Z,27.69
2023-08-04T06:24:17.555Z,27.90
2023-08-04T06:26:46.349Z,28.20
2023-08-04T06:29:15.165Z,28.12
2023-08-04T06:31:44.097Z,28.11
2023-08-04T06:34:13.553Z,28.38
2023-08-04T06:36:42.457Z,28.34
2023-08-04T06:39:11.214Z,28.45
2023-08-04T06:44:51.767Z,28.46
2023-08-04T06:47:20.914Z,28.50
2023-08-04T06:50:07.843Z,28.47
2023-08-04T06:53:05.499Z,28.54
2023-08-04T06:55:35.321Z,28.48
2023-08-04T06:58:14.639Z,28.12
2023-08-04T07:00:45.117Z,28.07
2023-08-04T07:03:14.373Z,28.73
2023-08-04T07:05:43.353Z,29.04
2023-08-04T07:08:12.163Z,29.09
2023-08-04T07:10:42.389Z,28.89
2023-08-04T07:13:11.292Z,29.01
2023-08-04T07:15:45.694Z,29.14
2023-08-04T07:18:22.762Z,29.33
2023-08-04T07:20:50.507Z,29.48
2023-08-04T07:30:57.073Z,29.74
2023-08-04T07:40:01.616Z,30.66
2023-08-04T07:42:36.103Z,30.72
2023-08-04T07:45:06.930Z,30.90
2023-08-04T07:47:43.087Z,31.07
2023-08-04T07:50:16.618Z,30.77
2023-08-04T07:52:47.025Z,31.02
2023-08-04T07:55:21.663Z,31.16
2023-08-04T07:58:00.046Z,31.52
2023-08-04T08:01:40.583Z,31.54
2023-08-04T08:03:42.682Z,31.64
2023-08-04T08:06:18.888Z,31.56
2023-08-04T08:08:48.564Z,31.46
2023-08-04T08:11:17.403Z,31.30
2023-08-04T08:13:46.204Z,31.47
2023-08-04T08:16:21.914Z,31.72
2023-08-04T08:25:26.085Z,31.89
2023-08-04T08:28:00.457Z,32.22
2023-08-04T08:36:46.996Z,32.24
2023-08-04T08:39:22.247Z,32.35
2023-08-04T08:41:51.530Z,32.45
2023-08-04T08:44:20.502Z,32.45
2023-08-04T08:46:51.424Z,32.36
2023-08-04T08:49:52.026Z,32.51
2023-08-04T08:52:25.972Z,32.80
2023-08-04T08:55:27.434Z,32.71
2023-08-04T08:57:58.334Z,32.64
2023-08-04T09:00:32.494Z,32.98
2023-08-04T09:03:01.722Z,32.91
2023-08-04T09:05:36.177Z,32.89
2023-08-04T09:08:05.665Z,33.26
2023-08-04T09:10:39.642Z,33.31
2023-08-04T09:13:11.732Z,33.38
2023-08-04T09:16:04.471Z,33.50
2023-08-04T09:18:39.698Z,33.47
2023-08-04T09:21:19.389Z,33.82
2023-08-04T09:23:55.035Z,33.82
2023-08-04T09:26:27.066Z,33.69
2023-08-04T09:32:38.441Z,33.59
2023-08-04T09:35:12.889Z,33.72
2023-08-04T09:37:52.835Z,33.99
2023-08-04T09:40:26.188Z,33.99
2023-08-04T09:42:58.334Z,33.72
2023-08-04T09:45:43.914Z,34.01
2023-08-04T09:51:22.415Z,34.02
2023-08-04T09:54:32.150Z,34.05
2023-08-04T09:56:51.649Z,34.03
2023-08-04T09:59:21.226Z,34.18
2023-08-04T10:01:50.937Z,34.16
2023-08-04T10:04:26.102Z,34.35
2023-08-04T10:06:54.503Z,34.45
2023-08-04T10:09:25.453Z,34.65
2023-08-04T10:11:55.419Z,34.73
2023-08-04T10:14:30.692Z,34.73
2023-08-04T10:17:03.208Z,34.41
2023-08-04T10:19:34.177Z,34.64
2023-08-04T10:22:09.889Z,34.69
2023-08-04T10:24:43.034Z,34.54
2023-08-04T10:27:21.675Z,34.66
2023-08-04T10:30:15.897Z,34.87
2023-08-04T10:32:48.731Z,34.78
2023-08-04T10:35:21.382Z,34.81
2023-08-04T10:37:55.284Z,35.07
2023-08-04T10:40:35.955Z,34.68
2023-08-04T10:43:11.368Z,34.53
2023-08-04T10:49:00.435Z,34.24
2023-08-04T10:51:38.879Z,34.06
2023-08-04T10:54:20.588Z,34.21
2023-08-04T10:56:57.358Z,34.44
2023-08-04T10:59:27.973Z,34.36
2023-08-04T11:01:56.941Z,34.45
2023-08-04T11:04:30.235Z,34.34
2023-08-04T11:07:07.629Z,34.52
2023-08-04T11:09:39.427Z,34.71
2023-08-04T11:12:16.278Z,34.67
2023-08-04T11:14:45.751Z,34.95
2023-08-04T11:20:15.251Z,36.37
2023-08-04T11:22:39.225Z,36.28
2023-08-04T11:25:28.061Z,36.22
2023-08-04T11:28:00.346Z,36.82
2023-08-04T11:30:41.011Z,36.63
2023-08-04T11:33:16.357Z,36.77
2023-08-04T11:35:56.085Z,36.98
2023-08-04T11:39:18.558Z,36.90
2023-08-04T11:41:51.000Z,36.92
2023-08-04T11:44:20.283Z,36.48
2023-08-04T11:47:05.654Z,36.35
2023-08-04T11:49:44.261Z,36.08
2023-08-04T11:52:16.517Z,36.44
2023-08-04T11:55:03.580Z,36.47
2023-08-04T11:57:31.864Z,36.56
2023-08-04T12:00:06.856Z,36.81
2023-08-04T12:02:39.133Z,36.93
2023-08-04T12:05:14.979Z,36.76
2023-08-04T12:07:55.888Z,36.80
2023-08-04T12:10:38.926Z,37.32
2023-08-04T12:13:15.658Z,37.12
2023-08-04T12:15:59.255Z,37.03
2023-08-04T12:19:02.677Z,37.60
2023-08-04T12:21:42.052Z,37.90
2023-08-04T12:24:13.099Z,38.49
2023-08-04T12:26:46.700Z,38.45
2023-08-04T12:30:07.240Z,38.09
2023-08-04T12:32:30.955Z,37.58
2023-08-04T12:35:02.899Z,37.94
2023-08-04T12:37:36.472Z,37.84
2023-08-04T12:40:23.782Z,37.82
2023-08-04T12:42:57.463Z,38.16
2023-08-04T12:45:27.885Z,38.24
2023-08-04T12:47:58.918Z,38.23
2023-08-04T12:50:31.191Z,38.07
2023-08-04T12:53:00.233Z,37.56
2023-08-04T12:55:32.409Z,37.22
2023-08-04T12:58:01.463Z,37.28
2023-08-04T13:00:30.449Z,37.93
2023-08-04T13:02:59.550Z,38.24
2023-08-04T13:05:31.204Z,38.63
2023-08-04T13:08:05.701Z,38.67
2023-08-04T13:10:36.429Z,38.17
2023-08-04T13:13:14.294Z,38.07
2023-08-04T13:15:51.145Z,37.91
2023-08-04T13:18:25.432Z,38.13
2023-08-04T13:20:53.419Z,37.91
2023-08-04T13:23:23.286Z,37.83
2023-08-04T13:25:52.136Z,37.56
2023-08-04T13:28:22.469Z,37.17
2023-08-04T13:30:51.229Z,37.05
2023-08-04T13:33:20.023Z,37.31
2023-08-04T13:35:54.624Z,37.35
2023-08-04T13:38:23.494Z,37.62
2023-08-04T13:40:52.282Z,37.54
2023-08-04T13:43:25.821Z,37.67
2023-08-04T13:46:01.148Z,37.80
2023-08-04T13:48:30.383Z,37.79
2023-08-04T13:51:01.017Z,38.05
2023-08-04T13:53:30.087Z,38.09
2023-08-04T13:56:10.190Z,37.53
2023-08-04T13:58:42.046Z,37.83
2023-08-04T14:01:16.668Z,37.91
2023-08-04T14:03:47.763Z,37.61
2023-08-04T14:06:19.565Z,37.44
2023-08-04T14:08:50.100Z,37.12
2023-08-04T14:11:19.881Z,36.99
2023-08-04T14:13:51.362Z,37.29
2023-08-04T14:16:20.275Z,37.42
2023-08-04T14:18:50.713Z,37.54
2023-08-04T14:21:19.582Z,37.97
2023-08-04T14:23:48.420Z,37.61
2023-08-04T14:26:17.241Z,37.95
2023-08-04T14:28:46.133Z,37.72
2023-08-04T14:31:15.322Z,37.65
2023-08-04T14:33:45.938Z,38.20
2023-08-04T14:36:14.767Z,39.23
2023-08-04T14:38:43.526Z,39.63
2023-08-04T14:41:12.370Z,40.05
2023-08-04T14:43:42.771Z,39.80
2023-08-04T14:46:13.615Z,40.03
2023-08-04T14:48:42.953Z,40.37
2023-08-04T14:51:12.148Z,40.14
2023-08-04T14:53:41.145Z,39.38
2023-08-04T14:56:11.843Z,38.61
2023-08-04T14:58:41.226Z,37.89
2023-08-04T15:01:11.284Z,37.75
2023-08-04T15:03:41.558Z,37.19
2023-08-04T15:06:17.809Z,37.18
2023-08-04T15:08:48.479Z,37.12
2023-08-04T15:11:17.167Z,37.61
2023-08-04T15:13:48.205Z,38.13
2023-08-04T15:16:17.342Z,38.12
2023-08-04T15:18:47.256Z,38.01
2023-08-04T15:21:17.026Z,37.33
2023-08-04T15:23:51.480Z,37.11
2023-08-04T15:26:21.848Z,37.86
2023-08-04T15:28:54.114Z,38.89
2023-08-04T15:31:22.768Z,39.11
2023-08-04T15:33:59.557Z,39.25
2023-08-04T15:36:28.258Z,38.83
2023-08-04T15:39:00.039Z,38.84
2023-08-04T15:41:28.851Z,38.67
2023-08-04T15:43:57.650Z,38.04
2023-08-04T15:46:26.352Z,37.51
2023-08-04T15:48:55.139Z,37.40
2023-08-04T15:51:23.925Z,36.81
2023-08-04T15:53:52.650Z,36.84
2023-08-04T15:56:22.927Z,37.34
2023-08-04T15:58:51.648Z,37.49
2023-08-04T16:01:20.548Z,38.12
2023-08-04T16:03:52.460Z,37.84
2023-08-04T16:06:21.120Z,37.18
2023-08-04T16:08:49.902Z,37.07
2023-08-04T16:11:18.679Z,37.19
2023-08-04T16:13:47.444Z,37.15
2023-08-04T16:16:16.087Z,37.64
2023-08-04T16:18:44.905Z,37.99
2023-08-04T16:21:15.246Z,37.47
2023-08-04T16:23:44.026Z,36.81
2023-08-04T16:26:12.645Z,36.56
2023-08-04T16:28:41.385Z,36.39
2023-08-04T16:31:13.301Z,36.06
2023-08-04T16:33:42.119Z,35.93
2023-08-04T16:36:10.975Z,35.60
2023-08-04T16:38:43.061Z,35.27
2023-08-04T16:41:11.813Z,35.34
2023-08-04T16:43:43.422Z,35.57
2023-08-04T16:46:14.925Z,35.67
2023-08-04T16:48:47.927Z,35.61
2023-08-04T16:51:19.452Z,35.38
2023-08-04T16:53:48.168Z,35.21
2023-08-04T16:56:18.876Z,35.15
2023-08-04T16:58:59.356Z,35.14
2023-08-04T17:01:41.429Z,35.11
2023-08-04T17:04:18.281Z,35.05
2023-08-04T17:06:47.641Z,35.01
2023-08-04T17:09:24.684Z,34.88
2023-08-04T17:11:59.010Z,34.54
2023-08-04T17:14:34.823Z,34.45
2023-08-04T17:17:05.952Z,34.28
2023-08-04T17:19:40.482Z,34.08
2023-08-04T17:22:09.492Z,33.98
2023-08-04T17:24:38.341Z,33.90
2023-08-04T17:27:08.141Z,33.74
2023-08-04T17:29:37.298Z,33.59
2023-08-04T17:32:06.340Z,33.51
2023-08-04T17:34:35.281Z,33.43
2023-08-04T17:37:04.058Z,33.27
2023-08-04T17:39:32.897Z,33.15
2023-08-04T17:42:01.526Z,33.07
2023-08-04T17:44:32.851Z,32.84
2023-08-04T17:47:15.076Z,32.78
2023-08-04T17:49:45.761Z,32.78
2023-08-04T17:52:14.749Z,32.60
2023-08-04T17:54:46.433Z,32.44
2023-08-04T17:57:15.348Z,32.44
2023-08-04T17:59:44.839Z,32.47
2023-08-04T18:02:15.557Z,32.42
2023-08-04T18:04:46.091Z,32.36
2023-08-04T18:07:14.944Z,32.27
2023-08-04T18:09:43.744Z,32.36
2023-08-04T18:12:14.381Z,32.31
2023-08-04T18:14:47.153Z,32.20
2023-08-04T18:17:17.858Z,32.09
2023-08-04T18:19:48.176Z,32.09
2023-08-04T18:22:20.658Z,31.83
2023-08-04T18:24:49.482Z,31.68
2023-08-04T18:27:18.226Z,31.57
2023-08-04T18:29:47.010Z,31.46
2023-08-04T18:32:15.713Z,31.46
2023-08-04T18:34:44.469Z,31.51
2023-08-04T18:37:13.254Z,31.55
2023-08-04T18:39:41.971Z,31.55
2023-08-04T18:42:10.893Z,31.50
2023-08-04T18:44:39.804Z,31.50
2023-08-04T18:47:08.944Z,31.35
2023-08-04T18:49:37.683Z,31.37
2023-08-04T18:52:06.854Z,31.25
2023-08-04T18:54:35.876Z,31.15
2023-08-04T18:57:04.709Z,31.24
2023-08-04T18:59:34.866Z,31.19
2023-08-04T19:02:03.860Z,31.09
2023-08-04T19:04:32.762Z,31.11
2023-08-04T19:07:01.631Z,31.05
2023-08-04T19:09:30.463Z,31.10
2023-08-04T19:11:59.146Z,31.07
2023-08-04T19:14:28.213Z,30.88
2023-08-04T19:16:57.511Z,30.86
2023-08-04T19:19:27.575Z,30.89
2023-08-04T19:21:56.387Z,31.00
2023-08-04T19:24:28.033Z,31.07
2023-08-04T19:26:56.719Z,31.03
2023-08-04T19:29:25.554Z,30.97
2023-08-04T19:31:55.717Z,30.83
2023-08-04T19:34:24.481Z,30.84
2023-08-04T19:36:54.866Z,30.85
2023-08-04T19:39:27.880Z,30.77
2023-08-04T19:41:56.675Z,30.93
2023-08-04T19:44:30.070Z,30.97
2023-08-04T19:46:58.797Z,31.05
2023-08-04T19:49:28.759Z,31.10
2023-08-04T19:51:57.533Z,31.11
2023-08-04T19:54:26.272Z,31.23
2023-08-04T19:56:55.220Z,31.33
2023-08-04T19:59:23.964Z,31.21
2023-08-04T20:01:52.878Z,31.24
2023-08-04T20:04:23.298Z,31.31
2023-08-04T20:06:52.209Z,31.24
2023-08-04T20:09:26.960Z,31.05
2023-08-04T20:11:55.750Z,30.96
2023-08-04T20:14:24.606Z,30.94
2023-08-04T20:16:53.283Z,30.97
2023-08-04T20:19:23.148Z,31.00
2023-08-04T20:21:53.984Z,30.93
2023-08-04T20:24:22.353Z,30.85
2023-08-04T20:26:51.326Z,30.92
2023-08-04T20:29:20.273Z,30.96
2023-08-04T20:31:49.087Z,30.98
2023-08-04T20:34:19.463Z,30.84
2023-08-04T20:36:48.605Z,30.86
2023-08-04T20:39:17.748Z,30.76
2023-08-04T20:41:46.544Z,30.76
2023-08-04T20:44:16.955Z,30.66
2023-08-04T20:46:45.945Z,30.57
2023-08-04T20:49:14.725Z,30.37
2023-08-04T20:51:43.450Z,30.14
2023-08-04T20:54:12.209Z,30.01
2023-08-04T20:56:40.936Z,29.87
2023-08-04T20:59:09.569Z,29.75
2023-08-04T21:01:38.526Z,29.70
2023-08-04T21:04:07.566Z,29.62
2023-08-04T21:06:38.906Z,29.67
2023-08-04T21:09:07.773Z,29.72
2023-08-04T21:11:36.557Z,29.70
2023-08-04T21:14:05.269Z,29.63
2023-08-04T21:16:34.112Z,29.43
2023-08-04T21:19:02.920Z,29.32
2023-08-04T21:21:33.266Z,29.26
2023-08-04T21:24:02.275Z,29.18
2023-08-04T21:26:31.125Z,29.04
2023-08-04T21:29:00.222Z,29.02
2023-08-04T21:31:30.388Z,28.93
2023-08-04T21:33:59.455Z,28.95
2023-08-04T21:36:29.583Z,28.88
2023-08-04T21:38:58.373Z,28.78
2023-08-04T21:41:53.234Z,28.73
2023-08-04T21:44:26.516Z,28.66
2023-08-04T21:46:57.356Z,28.76
2023-08-04T21:49:26.708Z,28.71
2023-08-04T21:52:06.573Z,28.71
2023-08-04T21:57:51.836Z,28.67
2023-08-04T22:00:39.685Z,28.63
2023-08-04T22:03:10.195Z,28.57
2023-08-04T22:05:39.066Z,28.51
2023-08-04T22:08:08.040Z,28.45
2023-08-04T22:10:36.919Z,28.42
2023-08-04T22:13:05.827Z,28.36
2023-08-04T22:15:36.325Z,28.36
2023-08-04T22:18:05.220Z,28.31
2023-08-04T22:20:34.222Z,28.14
2023-08-04T22:23:03.006Z,28.18
2023-08-04T22:25:32.008Z,28.06
2023-08-04T22:28:00.907Z,28.01
2023-08-04T22:30:29.602Z,27.93
2023-08-04T22:32:58.413Z,27.92
2023-08-04T22:35:27.139Z,27.80
2023-08-04T22:38:01.108Z,27.83
2023-08-04T22:40:30.159Z,27.81
2023-08-04T22:43:01.915Z,27.33
2023-08-04T22:45:30.911Z,27.67
2023-08-04T22:48:04.233Z,27.62
2023-08-04T22:50:33.112Z,27.53
2023-08-04T22:53:02.205Z,27.53
2023-08-04T22:55:31.196Z,27.50
2023-08-04T22:57:59.876Z,27.48
2023-08-04T23:00:30.124Z,27.45
2023-08-04T23:02:59.218Z,27.37
2023-08-04T23:05:29.652Z,27.38
2023-08-04T23:07:58.526Z,27.32
2023-08-04T23:10:27.436Z,27.20
2023-08-04T23:12:56.287Z,27.22
2023-08-04T23:15:25.150Z,27.19
2023-08-04T23:17:56.579Z,27.14
2023-08-04T23:20:27.045Z,27.14
2023-08-04T23:22:59.290Z,27.02
2023-08-04T23:25:27.937Z,27.02
2023-08-04T23:27:59.315Z,26.98
2023-08-04T23:30:29.751Z,26.91
2023-08-04T23:32:59.947Z,26.83
2023-08-04T23:35:28.785Z,26.80
2023-08-04T23:37:57.516Z,26.78
2023-08-04T23:40:26.275Z,26.74
2023-08-04T23:42:55.229Z,26.71
2023-08-04T23:45:23.942Z,26.68
2023-08-04T23:47:52.867Z,26.66
2023-08-04T23:50:21.966Z,26.63
2023-08-04T23:52:50.735Z,26.63
2023-08-04T23:55:19.539Z,26.53
2023-08-04T23:57:48.367Z,26.50
